Time;durP1;ratioP1;P1;durP2;ratioP2;P2;SDS_P1;SDS_P2;PMS_P1;PMS_P2;Temp;Humidity;BMP_temperature;BMP_pressure;BME280_temperature;BME280_humidity;BME280_pressure;Samples;Min_cycle;Max_cycle;Signal;HPM_P1;HPM_P2
2021/07/27 00:02:02;;;;;;;19.73;9.73;;;;;;;19.15;64.07;100307.09;4913670;29;20086;-60
2021/07/27 00:04:27;;;;;;;22.52;9.43;;;;;;;18.98;64.28;100275.28;4913553;29;20054;-60
2021/07/27 00:06:53;;;;;;;22.13;9.80;;;;;;;18.97;64.05;100279.72;4912584;29;20048;-60
2021/07/27 00:09:19;;;;;;;22.75;9.82;;;;;;;19.08;64.79;100308.34;4914111;29;20138;-60
2021/07/27 00:11:44;;;;;;;17.92;9.82;;;;;;;18.99;65.74;100309.66;4913932;29;20136;-60
2021/07/27 00:14:10;;;;;;;21.75;9.90;;;;;;;18.89;65.92;100311.06;4913267;29;20063;-60
2021/07/27 00:16:36;;;;;;;22.35;9.27;;;;;;;18.88;65.62;100311.13;4912749;29;20417;-60
2021/07/27 00:19:02;;;;;;;24.27;9.93;;;;;;;18.83;64.79;100307.84;4912678;29;20146;-60
2021/07/27 00:21:27;;;;;;;23.55;9.38;;;;;;;18.64;64.88;100279.59;4913140;29;20095;-59
2021/07/27 00:23:53;;;;;;;24.98;9.23;;;;;;;18.76;63.88;100287.88;4910882;29;20056;-60
2021/07/27 00:26:24;;;;;;;24.27;9.55;;;;;;;18.94;64.73;100310.84;4913486;29;20044;-61
2021/07/27 00:28:57;;;;;;;31.83;9.57;;;;;;;18.96;65.03;100312.47;4912553;29;20131;-59
2021/07/27 00:31:24;;;;;;;25.20;9.88;;;;;;;18.84;65.14;100309.56;4896093;29;20076;-58
2021/07/27 00:33:49;;;;;;;23.20;9.55;;;;;;;18.74;65.79;100322.41;4912154;29;20522;-61
2021/07/27 00:36:16;;;;;;;21.23;9.77;;;;;;;18.42;66.33;100292.09;4913633;29;20046;-61
2021/07/27 00:38:42;;;;;;;28.67;9.68;;;;;;;18.51;66.42;100312.88;4912269;29;20151;-62
2021/07/27 00:41:08;;;;;;;28.40;9.85;;;;;;;18.49;67.04;100311.22;4912927;29;20135;-60
2021/07/27 00:43:34;;;;;;;22.08;9.25;;;;;;;18.52;66.71;100313.72;4916637;29;20167;-60
2021/07/27 00:46:00;;;;;;;31.15;10.20;;;;;;;18.31;66.70;100289.97;4915134;29;20044;-60
2021/07/27 00:48:26;;;;;;;24.90;9.35;;;;;;;18.26;66.79;100280.53;4916588;29;20505;-58
2021/07/27 00:50:52;;;;;;;19.75;9.23;;;;;;;18.46;67.01;100312.22;4915976;29;20059;-59
2021/07/27 00:53:19;;;;;;;18.48;8.75;;;;;;;18.45;66.76;100317.59;4916291;29;20059;-62
2021/07/27 00:55:45;;;;;;;26.85;9.68;;;;;;;18.44;67.02;100316.72;4915517;29;20044;-60
2021/07/27 00:58:11;;;;;;;20.67;9.05;;;;;;;18.39;67.22;100311.66;4916386;29;20048;-59
2021/07/27 01:00:37;;;;;;;23.60;9.15;;;;;;;18.30;67.51;100311.22;4915825;29;20375;-60
2021/07/27 01:03:02;;;;;;;24.38;9.07;;;;;;;18.14;67.84;100286.41;4916516;29;20052;-60
2021/07/27 01:05:29;;;;;;;22.90;9.80;;;;;;;18.31;67.81;100315.59;4929394;29;20195;-59
2021/07/27 01:07:57;;;;;;;19.83;9.50;;;;;;;18.29;67.67;100312.16;4899264;29;20139;-59
2021/07/27 01:10:23;;;;;;;28.02;10.27;;;;;;;18.27;67.38;100314.88;4916475;29;20044;-59
2021/07/27 01:12:50;;;;;;;26.17;9.65;;;;;;;18.12;67.29;100289.13;4915132;29;20059;-59
2021/07/27 01:15:16;;;;;;;19.45;9.80;;;;;;;18.18;67.33;100306.50;4916330;29;20509;-59
2021/07/27 01:17:42;;;;;;;40.05;10.32;;;;;;;18.14;67.65;100312.88;4899859;29;20189;-60
2021/07/27 01:20:28;;;;;;;27.27;10.10;;;;;;;17.96;67.99;100290.75;4915800;29;20044;-56
2021/07/27 01:37:32;;;;;;;25.15;10.20;;;;;;;17.99;68.13;100315.28;4914260;29;20138;-59
2021/07/27 01:39:42;;;;;;;21.85;9.02;;;;;;;17.76;68.89;100308.38;4914936;29;20136;-59
2021/07/27 01:42:12;;;;;;;25.08;9.32;;;;;;;17.70;68.81;100297.19;4915518;29;20071;-60
2021/07/27 01:44:45;;;;;;;22.35;10.23;;;;;;;17.65;68.72;100285.94;4913854;29;20725;-57
2021/07/27 01:47:15;;;;;;;27.27;9.90;;;;;;;17.79;68.82;100307.38;4914730;29;20052;-59
2021/07/27 01:49:42;;;;;;;23.88;9.95;;;;;;;17.82;68.81;100312.53;4913033;29;20478;-59
2021/07/27 01:52:15;;;;;;;21.45;9.27;;;;;;;17.71;68.80;100289.19;4915517;29;20052;-58
2021/07/27 01:54:41;;;;;;;27.75;9.05;;;;;;;17.64;68.78;100278.91;4914819;29;20044;-59
2021/07/27 01:57:10;;;;;;;21.58;9.15;;;;;;;17.77;68.92;100307.44;4913197;29;20056;-59
2021/07/27 01:59:56;;;;;;;23.35;9.35;;;;;;;17.78;68.89;100309.16;4916365;29;20052;-58
2021/07/27 02:02:22;;;;;;;21.30;9.30;;;;;;;17.64;68.82;100290.34;4926303;29;20044;-58
2021/07/27 02:04:48;;;;;;;29.20;10.00;;;;;;;17.79;68.56;100308.22;4915980;29;20398;-58
2021/07/27 02:07:13;;;;;;;22.95;9.10;;;;;;;17.73;68.52;100291.75;4914665;29;20149;-57
2021/07/27 02:09:42;;;;;;;24.85;9.07;;;;;;;17.90;68.52;100313.06;4914215;29;20052;-57
2021/07/27 02:12:16;;;;;;;24.85;8.65;;;;;;;17.90;68.11;100298.97;4915278;29;20050;-60
2021/07/27 02:15:05;;;;;;;25.02;8.68;;;;;;;18.00;68.03;100302.91;4914775;29;20044;-57
2021/07/27 02:17:33;;;;;;;26.42;9.57;;;;;;;18.02;67.86;100304.56;4915574;29;20052;-59
2021/07/27 02:20:00;;;;;;;25.02;8.48;;;;;;;18.12;67.56;100309.44;4913836;29;20135;-59
2021/07/27 02:22:27;;;;;;;21.20;9.75;;;;;;;18.39;67.07;100313.44;4916090;29;20135;-60
2021/07/27 02:24:53;;;;;;;30.00;9.02;;;;;;;19.09;64.21;100299.47;4898666;29;20040;-58
2021/07/27 02:27:18;;;;;;;27.02;9.20;;;;;;;19.59;61.80;100256.25;4914174;29;20090;-58
2021/07/27 02:29:45;;;;;;;19.35;8.38;;;;;;;20.55;59.33;100312.13;4929920;29;20486;-57
2021/07/27 02:32:12;;;;;;;17.65;8.30;;;;;;;21.09;57.60;100308.13;4914481;29;20047;-60
2021/07/27 02:34:38;;;;;;;19.45;8.13;;;;;;;21.41;56.35;100294.72;4914301;29;20464;-59
2021/07/27 02:37:03;;;;;;;26.27;8.52;;;;;;;21.89;54.63;100274.91;4914612;29;20540;-57
2021/07/27 02:39:32;;;;;;;18.48;8.35;;;;;;;22.64;53.03;100312.84;4914493;29;20072;-60
2021/07/27 02:41:57;;;;;;;34.92;8.88;;;;;;;23.13;51.44;100311.38;4915196;29;20048;-60
2021/07/27 02:44:23;;;;;;;22.92;7.80;;;;;;;23.50;50.51;100316.88;4914133;29;20409;-59
2021/07/27 02:46:50;;;;;;;26.00;7.97;;;;;;;23.83;49.73;100319.09;4914951;29;20048;-59
2021/07/27 02:49:16;;;;;;;20.20;8.43;;;;;;;24.14;48.66;100320.44;4914529;29;20139;-59
2021/07/27 02:51:47;;;;;;;20.25;8.10;;;;;;;24.34;47.79;100292.31;4914065;29;20593;-59
2021/07/27 02:54:13;;;;;;;22.50;7.45;;;;;;;24.78;46.89;100315.81;4913377;29;20145;-61
2021/07/27 02:56:39;;;;;;;11.95;7.70;;;;;;;25.09;45.99;100308.22;4928120;29;20083;-59
2021/07/27 02:59:04;;;;;;;19.13;7.60;;;;;;;25.39;45.21;100316.63;4915374;29;20040;-61
2021/07/27 03:01:31;;;;;;;25.95;8.48;;;;;;;25.75;44.48;100314.78;4914565;29;20532;-59
2021/07/27 03:03:57;;;;;;;20.30;7.70;;;;;;;25.85;43.86;100289.81;4913892;29;20130;-56
2021/07/27 03:06:23;;;;;;;16.98;7.78;;;;;;;26.24;43.36;100315.28;4913141;29;20155;-60
2021/07/27 03:11:21;;;;;;;17.35;7.90;;;;;;;26.64;41.94;100290.63;4914312;29;20044;-59
2021/07/27 03:13:47;;;;;;;16.42;8.10;;;;;;;27.05;41.35;100307.88;4915244;29;20142;-58
2021/07/27 03:16:17;;;;;;;25.77;7.55;;;;;;;27.35;40.80;100313.31;4912877;29;20123;-59
2021/07/27 03:18:51;;;;;;;26.70;8.80;;;;;;;27.57;39.89;100290.88;4913524;29;20581;-59
2021/07/27 03:21:19;;;;;;;16.80;7.75;;;;;;;28.11;38.88;100312.13;4914467;29;20071;-56
2021/07/27 03:23:46;;;;;;;29.45;9.43;;;;;;;27.99;38.60;100289.00;4912251;29;20083;-58
2021/07/27 03:26:12;;;;;;;21.80;8.02;;;;;;;28.25;37.91;100288.59;4912733;29;20079;-59
2021/07/27 03:28:39;;;;;;;21.05;8.20;;;;;;;28.62;37.73;100308.50;4914595;29;20083;-59
2021/07/27 03:31:05;;;;;;;19.65;8.10;;;;;;;28.83;37.38;100302.16;4914198;29;20036;-59
2021/07/27 03:33:31;;;;;;;25.60;8.68;;;;;;;28.96;36.79;100282.06;4913910;29;20398;-59
2021/07/27 03:35:57;;;;;;;19.83;8.85;;;;;;;29.40;36.67;100290.56;4913453;29;20099;-58
2021/07/27 03:38:24;;;;;;;20.30;8.30;;;;;;;29.67;36.10;100279.03;4915394;29;20048;-61
2021/07/27 03:40:50;;;;;;;15.88;8.70;;;;;;;29.83;35.36;100287.38;4897576;29;20135;-56
2021/07/27 03:43:16;;;;;;;20.60;8.15;;;;;;;30.06;34.13;100290.59;4913876;29;20154;-59
2021/07/27 03:45:41;;;;;;;22.05;8.85;;;;;;;30.18;33.56;100280.44;4914028;29;20084;-58
2021/07/27 03:48:07;;;;;;;24.38;8.40;;;;;;;30.58;33.15;100307.94;4913725;29;20134;-60
2021/07/27 03:50:33;;;;;;;23.40;9.45;;;;;;;30.81;32.90;100296.72;4914574;29;20072;-60
2021/07/27 03:52:58;;;;;;;24.10;9.23;;;;;;;31.19;32.51;100303.69;4914444;29;20051;-62
2021/07/27 03:55:24;;;;;;;33.40;12.27;;;;;;;31.47;32.32;100302.59;4914432;29;20395;-60
2021/07/27 03:57:53;;;;;;;29.75;9.98;;;;;;;31.74;31.43;100279.13;4914260;29;20135;-61
2021/07/27 04:00:19;;;;;;;24.13;8.93;;;;;;;32.08;31.49;100303.53;4913700;29;20394;-59
2021/07/27 04:02:45;;;;;;;36.08;10.50;;;;;;;32.17;31.91;100279.03;4913100;29;20190;-60
2021/07/27 04:05:10;;;;;;;28.70;10.25;;;;;;;32.50;31.55;100306.25;4913548;29;20042;-60
2021/07/27 04:07:36;;;;;;;24.65;9.38;;;;;;;32.51;30.30;100280.88;4912022;29;20047;-61
2021/07/27 04:10:07;;;;;;;24.63;9.63;;;;;;;32.87;29.38;100286.09;4913713;29;20063;-60
2021/07/27 04:12:35;;;;;;;35.35;9.77;;;;;;;33.22;28.44;100290.34;4914044;29;20059;-60
2021/07/27 04:15:01;;;;;;;30.02;9.75;;;;;;;33.34;28.27;100268.16;4911952;29;20494;-60
2021/07/27 04:17:26;;;;;;;28.95;9.38;;;;;;;33.57;27.91;100260.19;4915856;29;20127;-61
2021/07/27 04:19:53;;;;;;;21.58;9.77;;;;;;;33.71;29.08;100289.31;4916395;29;20139;-61
2021/07/27 04:22:19;;;;;;;21.75;10.88;;;;;;;33.51;29.95;100265.44;4917963;29;20403;-61
2021/07/27 04:24:45;;;;;;;23.92;10.80;;;;;;;33.54;29.13;100276.81;4915643;29;20127;-61
2021/07/27 04:27:10;;;;;;;26.15;11.10;;;;;;;33.64;28.77;100268.47;4915461;29;20044;-61
2021/07/27 04:29:36;;;;;;;31.70;11.43;;;;;;;33.70;27.89;100282.19;4914726;29;20056;-61
2021/07/27 04:32:02;;;;;;;24.35;11.27;;;;;;;34.02;24.97;100253.28;4913970;29;20076;-60
2021/07/27 04:34:28;;;;;;;19.77;11.73;;;;;;;34.40;24.29;100276.91;4914777;29;20510;-61
2021/07/27 04:36:54;;;;;;;30.83;12.80;;;;;;;34.37;24.08;100271.00;4915159;29;20150;-61
2021/07/27 04:39:19;;;;;;;22.05;10.93;;;;;;;34.70;23.38;100275.19;4915386;29;20051;-61
2021/07/27 04:41:45;;;;;;;17.85;8.77;;;;;;;34.80;22.92;100274.97;4914398;29;20066;-61
2021/07/27 04:44:11;;;;;;;27.33;8.43;;;;;;;34.73;23.17;100274.84;4930117;29;20182;-62
2021/07/27 04:46:38;;;;;;;24.90;8.60;;;;;;;35.50;22.16;100269.34;4930372;29;20047;-62
2021/07/27 04:49:04;;;;;;;18.33;7.20;;;;;;;35.89;21.69;100268.28;4915313;29;20048;-57
2021/07/27 04:51:30;;;;;;;20.23;6.72;;;;;;;35.62;21.50;100272.44;4914838;29;20095;-62
2021/07/27 04:54:01;;;;;;;20.05;6.30;;;;;;;35.52;20.71;100267.28;4914464;29;20052;-61
2021/07/27 04:56:29;;;;;;;14.27;6.20;;;;;;;34.99;21.46;100238.34;4915490;29;20054;-61
2021/07/27 04:58:55;;;;;;;11.10;5.43;;;;;;;35.28;20.81;100257.44;4915219;29;20044;-56
2021/07/27 05:01:21;;;;;;;11.15;4.68;;;;;;;35.44;19.75;100253.75;4914566;29;20075;-60
2021/07/27 05:03:47;;;;;;;14.77;5.22;;;;;;;35.28;20.81;100249.28;4915868;29;20098;-59
2021/07/27 05:06:13;;;;;;;19.60;6.03;;;;;;;35.03;20.99;100248.66;4916275;29;20032;-62
2021/07/27 05:08:39;;;;;;;16.20;5.20;;;;;;;35.77;20.32;100237.09;4916581;29;20036;-60
2021/07/27 05:11:04;;;;;;;15.07;5.60;;;;;;;36.40;19.32;100265.63;4930634;29;20048;-60
2021/07/27 05:13:30;;;;;;;7.05;3.45;;;;;;;36.29;18.90;100256.91;4915764;29;20055;-61
2021/07/27 05:15:56;;;;;;;6.50;3.42;;;;;;;36.46;18.46;100243.94;4915134;29;20079;-61
2021/07/27 05:18:22;;;;;;;5.18;2.70;;;;;;;36.78;17.81;100233.59;4915148;29;20166;-62
2021/07/27 05:20:47;;;;;;;6.45;3.67;;;;;;;37.39;17.71;100259.34;4914792;29;20074;-62
2021/07/27 05:23:13;;;;;;;8.02;3.08;;;;;;;36.97;18.43;100235.66;4916340;29;20103;-62
2021/07/27 05:25:39;;;;;;;7.53;3.63;;;;;;;37.69;17.34;100250.94;4929440;29;20134;-61
2021/07/27 05:28:08;;;;;;;6.45;3.33;;;;;;;37.32;17.41;100233.91;4915525;29;20089;-60
2021/07/27 05:30:35;;;;;;;5.30;2.70;;;;;;;37.76;16.68;100263.63;4929880;29;20090;-62
2021/07/27 05:33:04;;;;;;;6.20;2.78;;;;;;;37.57;16.97;100258.00;4916393;29;20040;-60
2021/07/27 05:35:30;;;;;;;8.20;3.00;;;;;;;37.64;16.67;100253.44;4915695;29;20553;-60
2021/07/27 05:37:56;;;;;;;9.93;3.08;;;;;;;37.85;16.51;100223.31;4914309;29;20052;-61
2021/07/27 05:40:21;;;;;;;10.60;3.00;;;;;;;38.45;15.99;100235.38;4912418;29;20048;-62
2021/07/27 05:42:47;;;;;;;9.48;3.10;;;;;;;38.02;16.56;100254.75;4912712;29;20064;-62
2021/07/27 05:45:13;;;;;;;5.05;3.10;;;;;;;36.74;17.83;100254.91;4914109;29;20037;-62
2021/07/27 05:47:39;;;;;;;7.65;2.88;;;;;;;36.26;17.67;100257.25;4911518;29;20069;-62
2021/07/27 05:50:09;;;;;;;6.68;2.90;;;;;;;35.91;17.84;100228.09;4913022;29;20359;-61
2021/07/27 05:52:34;;;;;;;4.90;2.95;;;;;;;36.23;18.09;100238.56;4928917;29;20055;-62
2021/07/27 05:55:00;;;;;;;5.50;2.30;;;;;;;37.15;16.72;100240.63;4911231;29;20048;-61
2021/07/27 05:57:26;;;;;;;6.07;2.58;;;;;;;36.71;17.19;100241.66;4913290;29;20044;-62
2021/07/27 05:59:52;;;;;;;9.23;2.67;;;;;;;37.15;16.76;100221.53;4929316;29;20063;-62
2021/07/27 06:02:21;;;;;;;9.57;2.40;;;;;;;36.80;17.10;100246.00;4913299;29;20102;-63
2021/07/27 06:04:47;;;;;;;3.95;2.05;;;;;;;36.19;18.06;100231.81;4914746;29;20040;-61
2021/07/27 06:07:12;;;;;;;5.65;2.35;;;;;;;36.09;18.09;100250.34;4914874;29;20055;-63
2021/07/27 06:09:38;;;;;;;7.25;2.30;;;;;;;36.34;17.99;100256.34;4928126;29;20075;-63
2021/07/27 06:12:04;;;;;;;6.90;2.33;;;;;;;36.59;17.16;100227.72;4914584;29;20451;-61
2021/07/27 06:14:30;;;;;;;5.43;2.25;;;;;;;37.37;16.49;100247.78;4927498;29;20103;-62
2021/07/27 06:16:57;;;;;;;7.65;2.45;;;;;;;37.93;16.18;100246.94;4925570;29;20147;-61
2021/07/27 06:19:24;;;;;;;6.60;2.75;;;;;;;38.53;15.84;100237.09;4943373;28;20486;-61
2021/07/27 06:21:50;;;;;;;7.88;2.33;;;;;;;39.06;15.12;100254.50;4912295;29;20096;-62
2021/07/27 06:24:17;;;;;;;4.90;2.55;;;;;;;38.48;15.66;100229.50;4913189;29;20447;-61
2021/07/27 06:26:43;;;;;;;8.93;2.45;;;;;;;37.74;16.23;100248.47;4912908;29;20059;-62
2021/07/27 06:29:09;;;;;;;6.07;2.20;;;;;;;38.07;16.07;100241.31;4928020;29;20052;-61
2021/07/27 06:31:35;;;;;;;7.88;2.70;;;;;;;38.35;15.61;100213.06;4912362;29;20072;-60
2021/07/27 06:34:01;;;;;;;7.63;2.90;;;;;;;39.01;15.35;100225.00;4913370;29;20048;-61
2021/07/27 06:36:28;;;;;;;8.88;2.70;;;;;;;39.18;15.10;100236.38;4912304;29;21063;-60
2021/07/27 06:38:54;;;;;;;7.22;2.63;;;;;;;39.59;14.55;100241.66;4910667;29;20422;-62
2021/07/27 06:41:20;;;;;;;8.77;2.92;;;;;;;39.67;14.60;100219.50;4911439;29;20051;-62
2021/07/27 06:43:46;;;;;;;6.45;2.63;;;;;;;39.24;14.44;100251.13;4911674;29;20056;-63
2021/07/27 06:46:12;;;;;;;12.60;2.80;;;;;;;38.67;14.71;100223.28;4910471;29;20247;-62
2021/07/27 06:48:38;;;;;;;12.52;2.97;;;;;;;39.28;14.10;100225.84;4911754;29;20068;-62
2021/07/27 06:51:13;;;;;;;7.85;2.58;;;;;;;38.78;14.94;100241.81;4916557;29;20054;-62
2021/07/27 06:53:41;;;;;;;6.70;2.75;;;;;;;38.97;14.57;100244.78;4920056;29;20131;-60
2021/07/27 06:56:08;;;;;;;5.20;2.40;;;;;;;39.09;14.57;100213.03;4921715;29;20414;-62
2021/07/27 06:58:34;;;;;;;10.40;2.55;;;;;;;39.38;13.94;100236.38;4912834;29;20103;-62
2021/07/27 07:01:01;;;;;;;6.30;2.40;;;;;;;39.71;13.65;100239.94;4911423;29;20075;-61
2021/07/27 07:03:27;;;;;;;7.65;2.25;;;;;;;39.72;14.21;100238.03;4911370;29;20044;-62
2021/07/27 07:05:53;;;;;;;6.07;2.40;;;;;;;40.17;13.69;100230.75;4912188;29;20051;-61
2021/07/27 07:08:19;;;;;;;8.82;2.53;;;;;;;41.05;13.46;100244.63;4911194;29;20044;-61
2021/07/27 07:10:44;;;;;;;4.25;2.10;;;;;;;41.30;12.16;100210.84;4915004;29;20040;-61
2021/07/27 07:13:10;;;;;;;4.78;2.53;;;;;;;40.57;12.50;100227.81;4917279;29;20087;-62
2021/07/27 07:15:36;;;;;;;8.40;2.60;;;;;;;40.78;11.85;100221.13;4919621;29;20047;-60
2021/07/27 07:18:02;;;;;;;10.65;3.10;;;;;;;38.87;13.83;100233.41;4914005;29;20039;-63
2021/07/27 07:20:29;;;;;;;11.25;3.15;;;;;;;37.85;15.33;100235.09;4926899;29;20051;-62
2021/07/27 07:22:55;;;;;;;12.50;2.92;;;;;;;37.50;15.57;100230.66;4911107;29;20280;-62
2021/07/27 07:25:24;;;;;;;11.25;3.22;;;;;;;37.73;15.08;100230.41;4911477;29;20131;-62
2021/07/27 07:27:50;;;;;;;7.40;2.85;;;;;;;38.04;14.95;100233.53;4910721;29;20040;-62
2021/07/27 07:30:16;;;;;;;7.18;2.67;;;;;;;38.60;14.45;100230.59;4910731;29;20055;-62
2021/07/27 07:32:42;;;;;;;7.97;2.63;;;;;;;37.98;14.77;100228.88;4910640;29;20054;-63
2021/07/27 07:35:09;;;;;;;4.82;2.78;;;;;;;37.23;15.62;100232.34;4914865;29;20032;-61
2021/07/27 07:37:35;;;;;;;12.55;3.28;;;;;;;36.88;16.09;100229.50;4912811;29;20052;-62
2021/07/27 07:40:01;;;;;;;10.20;3.00;;;;;;;36.85;15.75;100194.44;4911545;29;20442;-60
2021/07/27 07:42:26;;;;;;;9.65;2.60;;;;;;;37.81;15.17;100216.59;4912746;29;20187;-62
2021/07/27 07:44:52;;;;;;;6.60;2.72;;;;;;;37.70;15.33;100222.63;4919569;29;20051;-63
2021/07/27 07:47:18;;;;;;;6.40;3.20;;;;;;;36.73;16.01;100187.78;4931852;29;20285;-63
2021/07/27 07:49:44;;;;;;;8.55;2.90;;;;;;;36.65;16.57;100215.19;4914774;29;20449;-64
2021/07/27 07:52:09;;;;;;;6.20;3.08;;;;;;;37.13;16.26;100210.81;4916320;29;20071;-62
2021/07/27 07:54:41;;;;;;;7.88;3.60;;;;;;;37.34;16.04;100215.44;4913030;29;20036;-62
2021/07/27 07:57:07;;;;;;;6.85;3.78;;;;;;;37.71;16.03;100216.13;4915827;29;20040;-64
2021/07/27 07:59:33;;;;;;;8.27;2.78;;;;;;;38.48;15.15;100215.81;4914678;29;20056;-61
2021/07/27 08:01:59;;;;;;;7.88;2.97;;;;;;;37.95;15.28;100195.66;4913627;29;20044;-64
2021/07/27 08:04:25;;;;;;;4.95;2.53;;;;;;;36.88;16.41;100221.31;4917354;29;20048;-62
2021/07/27 08:06:52;;;;;;;8.88;3.00;;;;;;;36.37;16.94;100181.53;4914250;29;20040;-63
2021/07/27 08:09:18;;;;;;;11.45;3.10;;;;;;;37.14;16.24;100187.94;4916775;29;20378;-62
2021/07/27 08:11:44;;;;;;;4.70;2.97;;;;;;;36.72;16.50;100205.19;4915245;29;20048;-62
2021/07/27 08:14:11;;;;;;;8.85;3.03;;;;;;;36.40;16.71;100173.81;4915931;29;20075;-63
2021/07/27 08:16:36;;;;;;;5.18;2.72;;;;;;;37.11;15.52;100182.03;4914453;29;20064;-63
2021/07/27 08:19:03;;;;;;;7.97;2.90;;;;;;;37.92;15.11;100182.41;4913873;29;20143;-62
2021/07/27 08:21:29;;;;;;;10.80;2.55;;;;;;;38.27;15.06;100216.81;4913786;29;20044;-62
2021/07/27 08:23:55;;;;;;;6.10;2.60;;;;;;;37.98;14.36;100190.63;4916501;29;20524;-62
2021/07/27 08:26:22;;;;;;;8.70;2.72;;;;;;;37.38;14.71;100205.81;4914461;29;20610;-63
2021/07/27 08:28:48;;;;;;;8.55;2.38;;;;;;;37.88;14.26;100201.06;4916942;29;20055;-60
2021/07/27 08:31:16;;;;;;;7.40;2.60;;;;;;;37.86;14.85;100208.63;4914106;29;20058;-61
2021/07/27 08:33:42;;;;;;;8.45;2.70;;;;;;;38.54;14.20;100195.00;4913502;29;20048;-68
2021/07/27 08:36:08;;;;;;;7.85;2.58;;;;;;;38.31;14.38;100200.84;4913843;29;20055;-62
2021/07/27 08:38:35;;;;;;;7.95;2.47;;;;;;;37.74;14.37;100200.16;4914153;29;20119;-63
2021/07/27 08:41:02;;;;;;;4.82;2.40;;;;;;;38.20;13.95;100213.22;4913082;29;20079;-62
2021/07/27 08:43:28;;;;;;;3.83;2.67;;;;;;;38.01;13.99;100179.28;4914197;29;20060;-62
2021/07/27 08:45:55;;;;;;;7.55;2.78;;;;;;;37.11;15.49;100190.22;4915849;29;20111;-60
2021/07/27 08:48:22;;;;;;;3.55;2.40;;;;;;;37.21;15.48;100186.13;4898509;29;20048;-61
2021/07/27 08:50:48;;;;;;;4.78;2.70;;;;;;;37.14;15.52;100187.09;4913980;29;20047;-59
2021/07/27 08:53:14;;;;;;;6.70;2.70;;;;;;;36.93;15.69;100185.25;4915790;29;20147;-63
2021/07/27 08:55:40;;;;;;;10.00;2.97;;;;;;;37.51;14.95;100199.59;4914260;29;20055;-61
2021/07/27 08:58:05;;;;;;;6.68;3.03;;;;;;;37.73;14.84;100186.72;4913526;29;20056;-62
2021/07/27 09:00:32;;;;;;;3.05;2.40;;;;;;;37.97;14.73;100158.91;4928087;28;20352;-61
2021/07/27 09:03:11;;;;;;;4.45;2.50;;;;;;;37.99;14.63;100173.19;4926428;29;20044;-59
2021/07/27 09:05:37;;;;;;;11.20;2.80;;;;;;;36.81;15.52;100165.00;4916583;29;20130;-61
2021/07/27 09:08:04;;;;;;;9.45;2.80;;;;;;;37.20;15.99;100165.34;4915323;29;20051;-60
2021/07/27 09:10:31;;;;;;;5.75;2.60;;;;;;;37.31;16.35;100188.53;4915008;29;20048;-57
2021/07/27 09:13:02;;;;;;;6.22;2.63;;;;;;;36.05;16.58;100180.94;4916505;29;20056;-58
2021/07/27 09:15:36;;;;;;;6.25;2.70;;;;;;;34.37;18.14;100159.59;4913903;29;20588;-59
2021/07/27 09:18:04;;;;;;;8.15;2.95;;;;;;;33.79;19.28;100188.88;4914448;29;20043;-62
2021/07/27 09:20:46;;;;;;;7.30;2.85;;;;;;;32.83;19.83;100177.16;4896536;29;20055;-59
2021/07/27 09:23:20;;;;;;;8.35;3.13;;;;;;;32.52;20.12;100177.78;4913187;29;20168;-59
2021/07/27 09:25:47;;;;;;;3.92;2.55;;;;;;;32.13;20.24;100168.53;4945130;28;20505;-62
2021/07/27 09:28:14;;;;;;;5.68;2.80;;;;;;;32.31;20.43;100174.69;4913623;29;20088;-55
2021/07/27 09:30:42;;;;;;;6.60;2.85;;;;;;;32.38;21.30;100175.72;4913487;29;20040;-57
2021/07/27 09:33:11;;;;;;;7.28;2.60;;;;;;;32.39;20.34;100166.59;4915380;29;20051;-61
2021/07/27 09:35:38;;;;;;;7.68;2.95;;;;;;;31.77;21.04;100162.47;4914365;29;20131;-60
2021/07/27 09:38:07;;;;;;;5.03;2.90;;;;;;;31.66;20.70;100169.00;4913194;29;20059;-59
2021/07/27 09:40:48;;;;;;;6.20;2.85;;;;;;;31.45;21.01;100171.25;4914689;29;20184;-60
2021/07/27 09:43:19;;;;;;;6.05;3.20;;;;;;;31.47;20.90;100170.09;4912392;29;20056;-59
2021/07/27 09:45:50;;;;;;;11.98;3.28;;;;;;;31.27;20.52;100153.25;4913463;29;20391;-63
2021/07/27 09:48:17;;;;;;;5.20;2.85;;;;;;;31.26;21.02;100150.72;4913994;29;20051;-62
2021/07/27 09:50:51;;;;;;;4.65;3.10;;;;;;;31.16;21.10;100142.69;4914999;29;20059;-59
2021/07/27 09:53:17;;;;;;;7.43;2.67;;;;;;;31.24;20.79;100144.63;4926474;29;20525;-59
2021/07/27 09:55:43;;;;;;;8.70;3.30;;;;;;;30.82;21.26;100125.53;4932957;29;20493;-59
2021/07/27 09:58:10;;;;;;;7.15;3.22;;;;;;;30.91;21.27;100111.06;4932151;29;20062;-60
2021/07/27 10:01:00;;;;;;;5.43;2.72;;;;;;;30.74;21.51;100133.56;4933493;29;20421;-57
2021/07/27 10:03:28;;;;;;;4.82;2.45;;;;;;;30.83;21.84;100130.78;4932655;29;20075;-68
2021/07/27 10:05:54;;;;;;;8.98;2.85;;;;;;;30.86;22.03;100132.31;4933516;29;20062;-62
2021/07/27 10:08:27;;;;;;;7.25;2.83;;;;;;;31.11;21.54;100133.31;4934099;29;20051;-61
2021/07/27 10:11:08;;;;;;;6.45;3.10;;;;;;;31.15;21.59;100135.56;4938947;29;20566;-65
2021/07/27 10:13:35;;;;;;;5.32;2.80;;;;;;;30.84;21.53;100126.22;4900808;29;20569;-63
2021/07/27 10:16:01;;;;;;;6.07;2.75;;;;;;;30.97;20.87;100137.47;4912542;29;20134;-65
2021/07/27 10:18:32;;;;;;;13.40;2.63;;;;;;;31.13;21.09;100137.56;4912484;29;20131;-63
2021/07/27 10:21:28;;;;;;;8.80;2.63;;;;;;;31.11;20.95;100134.16;4913015;29;20055;-63
2021/07/27 10:24:20;;;;;;;8.90;2.50;;;;;;;31.22;20.76;100133.97;4910021;29;20059;-63
2021/07/27 10:26:47;;;;;;;9.18;2.70;;;;;;;30.44;21.72;100113.19;4895352;29;20096;-63
2021/07/27 10:29:14;;;;;;;10.20;2.70;;;;;;;30.24;21.93;100107.94;4911240;29;20063;-64
2021/07/27 10:31:41;;;;;;;7.07;3.22;;;;;;;30.10;23.01;100116.59;4895234;29;20040;-63
2021/07/27 10:34:08;;;;;;;9.38;3.20;;;;;;;29.97;23.32;100103.44;4912179;29;20055;-62
2021/07/27 10:36:42;;;;;;;7.03;3.15;;;;;;;29.75;23.32;100114.66;4910502;29;20044;-62
2021/07/27 10:39:14;;;;;;;6.68;3.10;;;;;;;29.56;23.25;100107.50;4895066;29;20055;-61
2021/07/27 10:41:43;;;;;;;7.47;4.75;;;;;;;29.68;23.68;100110.84;4927615;29;20072;-62
2021/07/27 10:44:12;;;;;;;9.23;3.60;;;;;;;29.63;23.62;100110.44;4927426;29;20048;-62
2021/07/27 10:46:45;;;;;;;12.15;3.67;;;;;;;29.89;23.62;100091.72;4911862;29;20422;-63
2021/07/27 10:49:17;;;;;;;15.90;3.58;;;;;;;29.99;24.05;100093.34;4896284;29;20040;-61
2021/07/27 10:51:47;;;;;;;8.90;3.22;;;;;;;29.81;23.91;100097.88;4913511;29;20048;-63
2021/07/27 10:54:15;;;;;;;6.60;2.95;;;;;;;29.62;23.91;100092.56;4912156;29;20056;-63
2021/07/27 10:56:56;;;;;;;4.93;3.22;;;;;;;29.47;23.50;100085.97;4913154;29;20549;-65
2021/07/27 10:59:24;;;;;;;14.80;6.72;;;;;;;29.58;23.56;100091.16;4927791;29;20056;-64
2021/07/27 11:01:52;;;;;;;6.95;3.90;;;;;;;29.69;23.62;100089.13;4912824;29;20107;-64
2021/07/27 11:04:21;;;;;;;9.32;3.78;;;;;;;29.42;23.05;100081.84;4912472;29;20490;-63
2021/07/27 11:06:47;;;;;;;7.53;3.22;;;;;;;29.29;23.62;100078.66;4913027;29;20043;-65
2021/07/27 11:09:14;;;;;;;8.13;3.22;;;;;;;29.40;23.48;100067.69;4911177;29;20533;-64
2021/07/27 11:11:47;;;;;;;8.95;3.10;;;;;;;29.54;23.16;100074.44;4913583;29;20130;-63
2021/07/27 11:14:20;;;;;;;8.40;3.08;;;;;;;29.54;23.82;100070.91;4913945;29;20056;-62
2021/07/27 11:16:46;;;;;;;6.03;3.17;;;;;;;29.36;24.11;100060.03;4895514;29;20493;-63
2021/07/27 11:19:32;;;;;;;6.90;3.47;;;;;;;29.13;23.85;100074.91;4896321;29;20522;-63
2021/07/27 11:21:59;;;;;;;5.32;3.13;;;;;;;28.89;24.61;100087.00;4909181;29;20043;-63
2021/07/27 11:24:26;;;;;;;6.35;3.20;;;;;;;28.75;24.66;100071.28;4909019;29;20052;-64
2021/07/27 11:26:54;;;;;;;6.47;3.05;;;;;;;28.72;24.92;100047.34;4936163;28;20528;-63
2021/07/27 11:29:21;;;;;;;22.05;15.90;;;;;;;28.83;24.85;100070.53;4919651;29;20063;-63
2021/07/27 11:31:48;;;;;;;15.00;5.82;;;;;;;28.82;24.75;100064.31;4902496;29;20583;-63
2021/07/27 11:34:25;;;;;;;9.52;3.72;;;;;;;28.89;24.76;100060.06;4921001;29;20047;-61
2021/07/27 11:36:52;;;;;;;5.85;3.00;;;;;;;28.97;24.66;100057.50;4918958;29;20043;-62
2021/07/27 11:39:18;;;;;;;6.68;3.15;;;;;;;29.04;24.68;100060.47;4921337;29;20082;-67